Ovid, Colorado
Current Conditions -  °F | °C
As of 12:35 PM on Thursday 27 Nov 2014 (Local Time) from KHEQ Reporting Station
Clear Clear  
Wind Chill: 59°   Ceiling: Unl
Heat Index: 59°   Visibility: 10mi
Dew Point: 37°   Wind: 5mph
Humidity: 45%   Direction: 240°WSW
Pressure: 30.1"   Gusts: NA
Location:  40.96°N, 102.39°W
Report Text: KHEQ 271935Z AUTO 24004KT 10SM CLR 15/03 A3010 RMK AO2
Loading
Personal Weather Stations






























Interactive Weather Map New forecast layout! Learn more

10-Day Weather Forecast

Advertisements
Track Severe Weather on mobile